sensor_id;sensor_type;location;lat;lon;timestamp;temperature;humidity
66962;HTU21D;53897;51.126;5.868;2022-10-17T00:00:50;23.39;53.50
66962;HTU21D;53897;51.126;5.868;2022-10-17T00:03:16;23.37;53.50
66962;HTU21D;53897;51.126;5.868;2022-10-17T00:05:45;23.36;53.49
66962;HTU21D;53897;51.126;5.868;2022-10-17T00:08:12;23.37;53.48
66962;HTU21D;53897;51.126;5.868;2022-10-17T00:10:39;23.36;53.46
66962;HTU21D;53897;51.126;5.868;2022-10-17T00:13:06;23.36;53.46
66962;HTU21D;53897;51.126;5.868;2022-10-17T00:15:32;23.35;53.46
66962;HTU21D;53897;51.126;5.868;2022-10-17T00:17:59;23.34;53.44
66962;HTU21D;53897;51.126;5.868;2022-10-17T00:20:25;23.34;53.43
66962;HTU21D;53897;51.126;5.868;2022-10-17T00:22:51;23.32;53.43
66962;HTU21D;53897;51.126;5.868;2022-10-17T00:25:18;23.32;53.43
66962;HTU21D;53897;51.126;5.868;2022-10-17T00:27:44;23.31;53.43
66962;HTU21D;53897;51.126;5.868;2022-10-17T00:30:12;23.30;53.42
66962;HTU21D;53897;51.126;5.868;2022-10-17T00:32:39;23.30;53.41
66962;HTU21D;53897;51.126;5.868;2022-10-17T00:35:06;23.30;53.40
66962;HTU21D;53897;51.126;5.868;2022-10-17T00:37:32;23.29;53.38
66962;HTU21D;53897;51.126;5.868;2022-10-17T00:39:58;23.29;53.39
66962;HTU21D;53897;51.126;5.868;2022-10-17T00:42:25;23.29;53.37
66962;HTU21D;53897;51.126;5.868;2022-10-17T00:47:39;23.27;53.35
66962;HTU21D;53897;51.126;5.868;2022-10-17T00:50:06;23.26;53.35
66962;HTU21D;53897;51.126;5.868;2022-10-17T00:52:33;23.26;53.34
66962;HTU21D;53897;51.126;5.868;2022-10-17T00:55:07;23.25;53.33
66962;HTU21D;53897;51.126;5.868;2022-10-17T00:57:34;23.24;53.33
66962;HTU21D;53897;51.126;5.868;2022-10-17T01:00:04;23.24;53.32
66962;HTU21D;53897;51.126;5.868;2022-10-17T01:02:31;23.25;53.31
66962;HTU21D;53897;51.126;5.868;2022-10-17T01:04:57;23.23;53.30
66962;HTU21D;53897;51.126;5.868;2022-10-17T01:07:25;23.24;53.30
66962;HTU21D;53897;51.126;5.868;2022-10-17T01:09:52;23.23;53.29
66962;HTU21D;53897;51.126;5.868;2022-10-17T01:12:41;23.23;53.28
66962;HTU21D;53897;51.126;5.868;2022-10-17T01:18:38;23.20;53.27
66962;HTU21D;53897;51.126;5.868;2022-10-17T01:29:34;23.18;53.23
66962;HTU21D;53897;51.126;5.868;2022-10-17T01:32:31;23.17;53.23
66962;HTU21D;53897;51.126;5.868;2022-10-17T01:35:19;23.16;53.24
66962;HTU21D;53897;51.126;5.868;2022-10-17T01:37:55;23.15;53.23
66962;HTU21D;53897;51.126;5.868;2022-10-17T01:41:12;23.16;53.23
66962;HTU21D;53897;51.126;5.868;2022-10-17T01:43:25;23.14;53.23
66962;HTU21D;53897;51.126;5.868;2022-10-17T01:46:05;23.15;53.23
66962;HTU21D;53897;51.126;5.868;2022-10-17T01:48:36;23.13;53.21
66962;HTU21D;53897;51.126;5.868;2022-10-17T01:51:22;23.13;53.20
66962;HTU21D;53897;51.126;5.868;2022-10-17T01:54:06;23.12;53.20
66962;HTU21D;53897;51.126;5.868;2022-10-17T01:56:38;23.12;53.20
66962;HTU21D;53897;51.126;5.868;2022-10-17T01:59:28;23.12;53.18
66962;HTU21D;53897;51.126;5.868;2022-10-17T02:01:58;23.11;53.18
66962;HTU21D;53897;51.126;5.868;2022-10-17T02:04:25;23.10;53.17
66962;HTU21D;53897;51.126;5.868;2022-10-17T02:06:50;23.11;53.17
66962;HTU21D;53897;51.126;5.868;2022-10-17T02:09:23;23.11;53.14
66962;HTU21D;53897;51.126;5.868;2022-10-17T02:15:20;23.09;53.13
66962;HTU21D;53897;51.126;5.868;2022-10-17T02:20:53;23.09;53.12
66962;HTU21D;53897;51.126;5.868;2022-10-17T02:26:11;23.06;53.07
66962;HTU21D;53897;51.126;5.868;2022-10-17T02:28:49;23.07;53.08
66962;HTU21D;53897;51.126;5.868;2022-10-17T02:31:23;23.07;53.06
66962;HTU21D;53897;51.126;5.868;2022-10-17T02:33:59;23.07;53.07
66962;HTU21D;53897;51.126;5.868;2022-10-17T02:36:35;23.05;53.05
66962;HTU21D;53897;51.126;5.868;2022-10-17T02:39:05;23.05;53.06
66962;HTU21D;53897;51.126;5.868;2022-10-17T02:41:35;23.05;53.04
66962;HTU21D;53897;51.126;5.868;2022-10-17T02:44:04;23.05;53.04
66962;HTU21D;53897;51.126;5.868;2022-10-17T02:46:33;23.02;53.02
66962;HTU21D;53897;51.126;5.868;2022-10-17T02:49:07;23.05;53.01
66962;HTU21D;53897;51.126;5.868;2022-10-17T02:51:43;23.03;53.01
66962;HTU21D;53897;51.126;5.868;2022-10-17T02:54:39;23.01;53.00
66962;HTU21D;53897;51.126;5.868;2022-10-17T02:57:29;23.02;52.98
66962;HTU21D;53897;51.126;5.868;2022-10-17T02:59:59;23.01;52.98
66962;HTU21D;53897;51.126;5.868;2022-10-17T03:02:25;23.01;52.98
66962;HTU21D;53897;51.126;5.868;2022-10-17T03:04:51;23.01;52.97
66962;HTU21D;53897;51.126;5.868;2022-10-17T03:07:17;23.01;52.96
66962;HTU21D;53897;51.126;5.868;2022-10-17T03:09:43;23.00;52.94
66962;HTU21D;53897;51.126;5.868;2022-10-17T03:12:08;22.99;52.95
66962;HTU21D;53897;51.126;5.868;2022-10-17T03:14:34;23.00;52.94
66962;HTU21D;53897;51.126;5.868;2022-10-17T03:17:02;22.99;52.93
66962;HTU21D;53897;51.126;5.868;2022-10-17T03:19:27;22.99;52.93
66962;HTU21D;53897;51.126;5.868;2022-10-17T03:21:54;22.99;52.87
66962;HTU21D;53897;51.126;5.868;2022-10-17T03:24:20;22.98;52.89
66962;HTU21D;53897;51.126;5.868;2022-10-17T03:26:46;22.97;52.88
66962;HTU21D;53897;51.126;5.868;2022-10-17T03:29:13;22.97;52.90
66962;HTU21D;53897;51.126;5.868;2022-10-17T03:31:38;22.96;52.90
66962;HTU21D;53897;51.126;5.868;2022-10-17T03:34:05;22.95;52.89
66962;HTU21D;53897;51.126;5.868;2022-10-17T03:36:31;22.95;52.88
66962;HTU21D;53897;51.126;5.868;2022-10-17T03:38:57;22.96;52.87
66962;HTU21D;53897;51.126;5.868;2022-10-17T03:41:22;22.96;52.88
66962;HTU21D;53897;51.126;5.868;2022-10-17T03:43:48;22.95;52.87
66962;HTU21D;53897;51.126;5.868;2022-10-17T03:46:14;22.94;52.86
66962;HTU21D;53897;51.126;5.868;2022-10-17T03:48:40;22.95;52.85
66962;HTU21D;53897;51.126;5.868;2022-10-17T03:51:08;22.94;52.85
66962;HTU21D;53897;51.126;5.868;2022-10-17T03:53:39;22.94;52.84
66962;HTU21D;53897;51.126;5.868;2022-10-17T03:56:14;22.94;52.85
66962;HTU21D;53897;51.126;5.868;2022-10-17T03:58:42;22.93;52.84
66962;HTU21D;53897;51.126;5.868;2022-10-17T04:01:11;22.92;52.85
66962;HTU21D;53897;51.126;5.868;2022-10-17T04:03:38;22.92;52.85
66962;HTU21D;53897;51.126;5.868;2022-10-17T04:06:05;22.91;52.84
66962;HTU21D;53897;51.126;5.868;2022-10-17T04:08:33;22.91;52.83
66962;HTU21D;53897;51.126;5.868;2022-10-17T04:11:14;22.92;52.83
66962;HTU21D;53897;51.126;5.868;2022-10-17T04:13:42;22.90;52.84
66962;HTU21D;53897;51.126;5.868;2022-10-17T04:16:15;22.91;52.82
66962;HTU21D;53897;51.126;5.868;2022-10-17T04:18:55;22.91;52.81
66962;HTU21D;53897;51.126;5.868;2022-10-17T04:21:25;22.90;52.81
66962;HTU21D;53897;51.126;5.868;2022-10-17T04:23:52;22.88;52.80
66962;HTU21D;53897;51.126;5.868;2022-10-17T04:26:30;22.88;52.80
66962;HTU21D;53897;51.126;5.868;2022-10-17T04:28:56;22.88;52.79
66962;HTU21D;53897;51.126;5.868;2022-10-17T04:31:22;22.88;52.78
66962;HTU21D;53897;51.126;5.868;2022-10-17T04:34:11;22.88;52.78
66962;HTU21D;53897;51.126;5.868;2022-10-17T04:36:39;22.87;52.78
66962;HTU21D;53897;51.126;5.868;2022-10-17T04:39:06;22.86;52.77
66962;HTU21D;53897;51.126;5.868;2022-10-17T04:41:31;22.85;52.78
66962;HTU21D;53897;51.126;5.868;2022-10-17T04:43:57;22.86;52.79
66962;HTU21D;53897;51.126;5.868;2022-10-17T04:46:24;22.85;52.78
66962;HTU21D;53897;51.126;5.868;2022-10-17T04:48:50;22.86;52.77
66962;HTU21D;53897;51.126;5.868;2022-10-17T04:51:17;22.85;52.77
66962;HTU21D;53897;51.126;5.868;2022-10-17T04:54:02;22.85;52.75
66962;HTU21D;53897;51.126;5.868;2022-10-17T04:56:28;22.85;52.75
66962;HTU21D;53897;51.126;5.868;2022-10-17T04:58:53;22.85;52.73
66962;HTU21D;53897;51.126;5.868;2022-10-17T05:01:22;22.85;52.73
66962;HTU21D;53897;51.126;5.868;2022-10-17T05:03:52;22.85;52.72
66962;HTU21D;53897;51.126;5.868;2022-10-17T05:06:23;22.84;52.71
66962;HTU21D;53897;51.126;5.868;2022-10-17T05:09:10;22.84;52.72
66962;HTU21D;53897;51.126;5.868;2022-10-17T05:11:36;22.85;52.70
66962;HTU21D;53897;51.126;5.868;2022-10-17T05:14:01;22.83;52.71
66962;HTU21D;53897;51.126;5.868;2022-10-17T05:16:29;22.84;52.71
66962;HTU21D;53897;51.126;5.868;2022-10-17T05:18:57;22.84;52.71
66962;HTU21D;53897;51.126;5.868;2022-10-17T05:21:27;22.82;52.70
66962;HTU21D;53897;51.126;5.868;2022-10-17T05:23:53;22.83;52.65
66962;HTU21D;53897;51.126;5.868;2022-10-17T05:26:20;22.83;52.67
66962;HTU21D;53897;51.126;5.868;2022-10-17T05:28:47;22.83;52.67
66962;HTU21D;53897;51.126;5.868;2022-10-17T05:31:14;22.81;52.68
66962;HTU21D;53897;51.126;5.868;2022-10-17T05:33:40;22.81;52.69
66962;HTU21D;53897;51.126;5.868;2022-10-17T05:36:07;22.82;52.69
66962;HTU21D;53897;51.126;5.868;2022-10-17T05:38:33;22.81;52.68
66962;HTU21D;53897;51.126;5.868;2022-10-17T05:41:02;22.80;52.69
66962;HTU21D;53897;51.126;5.868;2022-10-17T05:43:28;22.78;52.81
66962;HTU21D;53897;51.126;5.868;2022-10-17T05:45:55;22.77;52.86
66962;HTU21D;53897;51.126;5.868;2022-10-17T05:48:22;22.76;52.87
66962;HTU21D;53897;51.126;5.868;2022-10-17T05:50:49;22.76;52.89
66962;HTU21D;53897;51.126;5.868;2022-10-17T05:53:16;22.76;52.93
66962;HTU21D;53897;51.126;5.868;2022-10-17T05:55:54;22.77;52.94
66962;HTU21D;53897;51.126;5.868;2022-10-17T05:58:20;22.76;52.95
66962;HTU21D;53897;51.126;5.868;2022-10-17T06:00:48;22.77;52.98
66962;HTU21D;53897;51.126;5.868;2022-10-17T06:03:14;22.78;53.04
66962;HTU21D;53897;51.126;5.868;2022-10-17T06:05:40;22.79;53.07
66962;HTU21D;53897;51.126;5.868;2022-10-17T06:08:06;22.79;53.14
66962;HTU21D;53897;51.126;5.868;2022-10-17T06:10:34;22.81;53.15
66962;HTU21D;53897;51.126;5.868;2022-10-17T06:13:00;22.80;53.14
66962;HTU21D;53897;51.126;5.868;2022-10-17T06:15:26;22.80;53.22
66962;HTU21D;53897;51.126;5.868;2022-10-17T06:17:59;22.81;53.23
66962;HTU21D;53897;51.126;5.868;2022-10-17T06:20:24;22.81;53.20
66962;HTU21D;53897;51.126;5.868;2022-10-17T06:22:51;22.81;53.23
66962;HTU21D;53897;51.126;5.868;2022-10-17T06:25:26;22.83;53.28
66962;HTU21D;53897;51.126;5.868;2022-10-17T06:27:53;22.82;53.36
66962;HTU21D;53897;51.126;5.868;2022-10-17T06:30:20;22.82;53.43
66962;HTU21D;53897;51.126;5.868;2022-10-17T06:32:48;22.81;53.40
66962;HTU21D;53897;51.126;5.868;2022-10-17T06:35:17;22.82;53.45
66962;HTU21D;53897;51.126;5.868;2022-10-17T06:37:43;22.83;53.51
66962;HTU21D;53897;51.126;5.868;2022-10-17T06:40:09;22.83;53.44
66962;HTU21D;53897;51.126;5.868;2022-10-17T06:42:38;22.83;53.38
66962;HTU21D;53897;51.126;5.868;2022-10-17T06:45:21;22.84;53.36
66962;HTU21D;53897;51.126;5.868;2022-10-17T06:47:54;22.85;53.44
66962;HTU21D;53897;51.126;5.868;2022-10-17T06:50:39;22.84;53.52
66962;HTU21D;53897;51.126;5.868;2022-10-17T06:53:20;22.84;53.54
66962;HTU21D;53897;51.126;5.868;2022-10-17T06:55:50;22.85;53.62
66962;HTU21D;53897;51.126;5.868;2022-10-17T06:58:40;22.84;53.68
66962;HTU21D;53897;51.126;5.868;2022-10-17T07:01:13;22.84;53.63
66962;HTU21D;53897;51.126;5.868;2022-10-17T07:03:39;22.87;53.61
66962;HTU21D;53897;51.126;5.868;2022-10-17T07:06:05;22.86;53.56
66962;HTU21D;53897;51.126;5.868;2022-10-17T07:08:31;22.87;53.53
66962;HTU21D;53897;51.126;5.868;2022-10-17T07:11:08;22.87;53.52
66962;HTU21D;53897;51.126;5.868;2022-10-17T07:13:34;22.86;53.52
66962;HTU21D;53897;51.126;5.868;2022-10-17T07:16:00;22.86;53.52
66962;HTU21D;53897;51.126;5.868;2022-10-17T07:18:27;22.86;53.50
66962;HTU21D;53897;51.126;5.868;2022-10-17T07:20:54;22.87;53.47
66962;HTU21D;53897;51.126;5.868;2022-10-17T07:23:21;22.87;53.43
66962;HTU21D;53897;51.126;5.868;2022-10-17T07:25:47;22.86;53.42
66962;HTU21D;53897;51.126;5.868;2022-10-17T07:28:15;22.90;53.40
66962;HTU21D;53897;51.126;5.868;2022-10-17T07:30:41;22.87;53.38
66962;HTU21D;53897;51.126;5.868;2022-10-17T07:33:10;22.88;53.36
66962;HTU21D;53897;51.126;5.868;2022-10-17T07:35:37;22.88;53.34
66962;HTU21D;53897;51.126;5.868;2022-10-17T07:38:05;22.87;53.35
66962;HTU21D;53897;51.126;5.868;2022-10-17T07:40:32;22.87;53.33
66962;HTU21D;53897;51.126;5.868;2022-10-17T07:42:59;22.88;53.32
66962;HTU21D;53897;51.126;5.868;2022-10-17T07:45:26;22.88;53.37
66962;HTU21D;53897;51.126;5.868;2022-10-17T07:47:58;22.88;53.39
66962;HTU21D;53897;51.126;5.868;2022-10-17T07:50:25;22.88;53.35
66962;HTU21D;53897;51.126;5.868;2022-10-17T07:52:50;22.88;53.31
66962;HTU21D;53897;51.126;5.868;2022-10-17T07:55:16;22.90;53.30
66962;HTU21D;53897;51.126;5.868;2022-10-17T07:57:42;22.91;53.29
66962;HTU21D;53897;51.126;5.868;2022-10-17T08:00:08;22.90;53.27
66962;HTU21D;53897;51.126;5.868;2022-10-17T08:02:38;22.91;53.25
66962;HTU21D;53897;51.126;5.868;2022-10-17T08:05:04;22.93;53.26
66962;HTU21D;53897;51.126;5.868;2022-10-17T08:07:30;22.92;53.25
66962;HTU21D;53897;51.126;5.868;2022-10-17T08:09:55;22.93;53.27
66962;HTU21D;53897;51.126;5.868;2022-10-17T08:12:21;22.93;53.23
66962;HTU21D;53897;51.126;5.868;2022-10-17T08:14:48;22.94;53.21
66962;HTU21D;53897;51.126;5.868;2022-10-17T08:17:14;22.94;53.19
66962;HTU21D;53897;51.126;5.868;2022-10-17T08:19:40;22.93;53.17
66962;HTU21D;53897;51.126;5.868;2022-10-17T08:22:06;22.95;53.15
66962;HTU21D;53897;51.126;5.868;2022-10-17T08:24:32;22.94;53.14
66962;HTU21D;53897;51.126;5.868;2022-10-17T08:26:58;22.94;53.12
66962;HTU21D;53897;51.126;5.868;2022-10-17T08:29:25;22.95;53.10
66962;HTU21D;53897;51.126;5.868;2022-10-17T08:31:51;22.96;53.10
66962;HTU21D;53897;51.126;5.868;2022-10-17T08:34:17;22.96;53.07
66962;HTU21D;53897;51.126;5.868;2022-10-17T08:36:43;22.96;53.06
66962;HTU21D;53897;51.126;5.868;2022-10-17T08:39:08;22.96;53.05
66962;HTU21D;53897;51.126;5.868;2022-10-17T08:47:45;22.97;53.01
66962;HTU21D;53897;51.126;5.868;2022-10-17T08:50:26;22.98;53.01
66962;HTU21D;53897;51.126;5.868;2022-10-17T08:53:17;22.97;52.99
66962;HTU21D;53897;51.126;5.868;2022-10-17T08:55:47;22.97;52.97
66962;HTU21D;53897;51.126;5.868;2022-10-17T09:01:00;22.97;52.93
66962;HTU21D;53897;51.126;5.868;2022-10-17T09:06:18;22.98;52.91
66962;HTU21D;53897;51.126;5.868;2022-10-17T09:19:40;22.98;52.88
66962;HTU21D;53897;51.126;5.868;2022-10-17T09:22:19;22.98;52.85
66962;HTU21D;53897;51.126;5.868;2022-10-17T09:25:04;22.99;52.80
66962;HTU21D;53897;51.126;5.868;2022-10-17T09:27:58;22.99;52.83
66962;HTU21D;53897;51.126;5.868;2022-10-17T09:30:56;22.98;52.82
66962;HTU21D;53897;51.126;5.868;2022-10-17T09:33:38;22.97;52.88
66962;HTU21D;53897;51.126;5.868;2022-10-17T09:36:10;22.97;52.91
66962;HTU21D;53897;51.126;5.868;2022-10-17T09:38:41;22.97;52.91
66962;HTU21D;53897;51.126;5.868;2022-10-17T09:41:38;22.97;52.88
66962;HTU21D;53897;51.126;5.868;2022-10-17T09:44:18;22.97;52.88
66962;HTU21D;53897;51.126;5.868;2022-10-17T09:47:14;22.97;52.91
66962;HTU21D;53897;51.126;5.868;2022-10-17T09:49:45;22.97;52.89
66962;HTU21D;53897;51.126;5.868;2022-10-17T09:52:16;22.98;52.89
66962;HTU21D;53897;51.126;5.868;2022-10-17T09:54:59;22.98;52.89
66962;HTU21D;53897;51.126;5.868;2022-10-17T10:00:23;22.99;52.88
66962;HTU21D;53897;51.126;5.868;2022-10-17T10:02:49;22.99;52.88
66962;HTU21D;53897;51.126;5.868;2022-10-17T10:05:19;22.99;52.87
66962;HTU21D;53897;51.126;5.868;2022-10-17T10:08:05;22.99;52.87
66962;HTU21D;53897;51.126;5.868;2022-10-17T10:10:32;22.99;52.85
66962;HTU21D;53897;51.126;5.868;2022-10-17T10:13:15;22.99;52.86
66962;HTU21D;53897;51.126;5.868;2022-10-17T10:15:47;22.99;52.87
66962;HTU21D;53897;51.126;5.868;2022-10-17T10:21:27;22.99;52.94
66962;HTU21D;53897;51.126;5.868;2022-10-17T10:24:13;23.00;52.97
66962;HTU21D;53897;51.126;5.868;2022-10-17T10:26:47;22.99;53.04
66962;HTU21D;53897;51.126;5.868;2022-10-17T10:29:21;23.00;53.08
66962;HTU21D;53897;51.126;5.868;2022-10-17T10:31:50;23.01;53.14
66962;HTU21D;53897;51.126;5.868;2022-10-17T10:34:27;23.01;53.20
66962;HTU21D;53897;51.126;5.868;2022-10-17T10:39:44;23.02;53.30
66962;HTU21D;53897;51.126;5.868;2022-10-17T10:42:36;23.03;53.37
66962;HTU21D;53897;51.126;5.868;2022-10-17T10:45:16;23.05;53.41
66962;HTU21D;53897;51.126;5.868;2022-10-17T10:47:57;23.05;53.46
66962;HTU21D;53897;51.126;5.868;2022-10-17T10:50:42;23.06;53.47
66962;HTU21D;53897;51.126;5.868;2022-10-17T10:58:56;23.07;53.60
66962;HTU21D;53897;51.126;5.868;2022-10-17T11:07:01;23.08;53.60
66962;HTU21D;53897;51.126;5.868;2022-10-17T11:09:55;23.09;53.65
66962;HTU21D;53897;51.126;5.868;2022-10-17T11:12:43;23.08;53.65
66962;HTU21D;53897;51.126;5.868;2022-10-17T11:15:24;23.05;53.70
66962;HTU21D;53897;51.126;5.868;2022-10-17T11:18:04;23.03;53.84
66962;HTU21D;53897;51.126;5.868;2022-10-17T11:20:55;23.02;53.84
66962;HTU21D;53897;51.126;5.868;2022-10-17T11:23:43;23.07;53.73
66962;HTU21D;53897;51.126;5.868;2022-10-17T11:28:52;23.06;53.63
66962;HTU21D;53897;51.126;5.868;2022-10-17T11:31:30;23.06;53.67
66962;HTU21D;53897;51.126;5.868;2022-10-17T11:34:20;23.07;53.68
66962;HTU21D;53897;51.126;5.868;2022-10-17T11:36:52;23.08;53.68
66962;HTU21D;53897;51.126;5.868;2022-10-17T11:39:33;23.08;53.62
66962;HTU21D;53897;51.126;5.868;2022-10-17T11:42:08;23.08;53.56
66962;HTU21D;53897;51.126;5.868;2022-10-17T11:44:41;23.09;53.52
66962;HTU21D;53897;51.126;5.868;2022-10-17T11:50:26;23.09;53.52
66962;HTU21D;53897;51.126;5.868;2022-10-17T11:53:27;23.09;53.49
66962;HTU21D;53897;51.126;5.868;2022-10-17T11:55:57;23.10;53.49
66962;HTU21D;53897;51.126;5.868;2022-10-17T11:58:29;23.10;53.51
66962;HTU21D;53897;51.126;5.868;2022-10-17T12:09:03;23.05;53.82
66962;HTU21D;53897;51.126;5.868;2022-10-17T12:11:49;23.05;53.85
66962;HTU21D;53897;51.126;5.868;2022-10-17T12:25:34;23.09;53.83
66962;HTU21D;53897;51.126;5.868;2022-10-17T12:30:33;23.09;53.86
66962;HTU21D;53897;51.126;5.868;2022-10-17T12:33:16;23.11;53.84
66962;HTU21D;53897;51.126;5.868;2022-10-17T12:38:36;23.11;53.75
66962;HTU21D;53897;51.126;5.868;2022-10-17T12:41:03;23.11;53.78
66962;HTU21D;53897;51.126;5.868;2022-10-17T12:46:00;23.12;53.85
66962;HTU21D;53897;51.126;5.868;2022-10-17T12:53:48;23.14;53.88
66962;HTU21D;53897;51.126;5.868;2022-10-17T12:56:39;23.13;53.91
66962;HTU21D;53897;51.126;5.868;2022-10-17T13:01:45;23.12;53.96
66962;HTU21D;53897;51.126;5.868;2022-10-17T13:04:12;23.13;53.99
66962;HTU21D;53897;51.126;5.868;2022-10-17T13:06:45;23.12;54.04
66962;HTU21D;53897;51.126;5.868;2022-10-17T13:09:31;23.12;54.08
66962;HTU21D;53897;51.126;5.868;2022-10-17T13:12:00;23.10;54.10
66962;HTU21D;53897;51.126;5.868;2022-10-17T13:14:27;23.09;54.13
66962;HTU21D;53897;51.126;5.868;2022-10-17T13:16:56;23.08;54.21
66962;HTU21D;53897;51.126;5.868;2022-10-17T13:19:31;23.06;54.23
66962;HTU21D;53897;51.126;5.868;2022-10-17T13:22:23;23.07;54.16
66962;HTU21D;53897;51.126;5.868;2022-10-17T13:24:52;23.09;54.00
66962;HTU21D;53897;51.126;5.868;2022-10-17T13:27:32;23.10;53.93
66962;HTU21D;53897;51.126;5.868;2022-10-17T13:30:00;23.11;53.88
66962;HTU21D;53897;51.126;5.868;2022-10-17T13:32:35;23.11;53.87
66962;HTU21D;53897;51.126;5.868;2022-10-17T13:35:31;23.12;53.79
66962;HTU21D;53897;51.126;5.868;2022-10-17T13:37:59;23.11;53.79
66962;HTU21D;53897;51.126;5.868;2022-10-17T13:40:30;23.12;53.81
66962;HTU21D;53897;51.126;5.868;2022-10-17T13:42:58;23.12;53.78
66962;HTU21D;53897;51.126;5.868;2022-10-17T13:45:32;23.12;53.74
66962;HTU21D;53897;51.126;5.868;2022-10-17T13:48:03;23.12;53.73
66962;HTU21D;53897;51.126;5.868;2022-10-17T13:50:36;23.12;53.74
66962;HTU21D;53897;51.126;5.868;2022-10-17T13:53:24;23.12;53.73
66962;HTU21D;53897;51.126;5.868;2022-10-17T13:56:05;23.13;53.72
66962;HTU21D;53897;51.126;5.868;2022-10-17T13:58:49;23.12;53.81
66962;HTU21D;53897;51.126;5.868;2022-10-17T14:01:17;23.11;53.89
66962;HTU21D;53897;51.126;5.868;2022-10-17T14:03:47;23.11;53.95
66962;HTU21D;53897;51.126;5.868;2022-10-17T14:06:20;23.12;53.93
66962;HTU21D;53897;51.126;5.868;2022-10-17T14:09:14;23.12;53.93
66962;HTU21D;53897;51.126;5.868;2022-10-17T14:11:43;23.13;53.91
66962;HTU21D;53897;51.126;5.868;2022-10-17T14:14:22;23.12;53.91
66962;HTU21D;53897;51.126;5.868;2022-10-17T14:16:49;23.14;53.92
66962;HTU21D;53897;51.126;5.868;2022-10-17T14:19:33;23.12;53.91
66962;HTU21D;53897;51.126;5.868;2022-10-17T14:22:26;23.13;53.99
66962;HTU21D;53897;51.126;5.868;2022-10-17T14:24:52;23.12;54.00
66962;HTU21D;53897;51.126;5.868;2022-10-17T14:27:26;23.13;54.02
66962;HTU21D;53897;51.126;5.868;2022-10-17T14:29:53;23.14;54.01
66962;HTU21D;53897;51.126;5.868;2022-10-17T14:32:21;23.14;53.98
66962;HTU21D;53897;51.126;5.868;2022-10-17T14:34:52;23.14;54.01
66962;HTU21D;53897;51.126;5.868;2022-10-17T14:37:40;23.15;54.01
66962;HTU21D;53897;51.126;5.868;2022-10-17T14:40:20;23.16;54.04
66962;HTU21D;53897;51.126;5.868;2022-10-17T14:42:49;23.16;54.12
66962;HTU21D;53897;51.126;5.868;2022-10-17T14:45:26;23.17;54.07
66962;HTU21D;53897;51.126;5.868;2022-10-17T14:47:55;23.17;53.99
66962;HTU21D;53897;51.126;5.868;2022-10-17T14:50:24;23.17;53.93
66962;HTU21D;53897;51.126;5.868;2022-10-17T14:55:28;23.17;54.04
66962;HTU21D;53897;51.126;5.868;2022-10-17T14:57:54;23.17;54.20
66962;HTU21D;53897;51.126;5.868;2022-10-17T15:00:22;23.17;54.24
66962;HTU21D;53897;51.126;5.868;2022-10-17T15:02:50;23.18;54.34
66962;HTU21D;53897;51.126;5.868;2022-10-17T15:05:16;23.18;54.51
66962;HTU21D;53897;51.126;5.868;2022-10-17T15:07:42;23.18;54.75
66962;HTU21D;53897;51.126;5.868;2022-10-17T15:10:33;23.18;55.06
66962;HTU21D;53897;51.126;5.868;2022-10-17T15:12:59;23.18;55.32
66962;HTU21D;53897;51.126;5.868;2022-10-17T15:15:29;23.20;55.56
66962;HTU21D;53897;51.126;5.868;2022-10-17T15:17:55;23.21;55.64
66962;HTU21D;53897;51.126;5.868;2022-10-17T15:20:21;23.18;55.66
66962;HTU21D;53897;51.126;5.868;2022-10-17T15:22:52;23.22;55.56
66962;HTU21D;53897;51.126;5.868;2022-10-17T15:25:19;23.24;55.55
66962;HTU21D;53897;51.126;5.868;2022-10-17T15:27:45;23.22;55.64
66962;HTU21D;53897;51.126;5.868;2022-10-17T15:30:33;23.22;55.72
66962;HTU21D;53897;51.126;5.868;2022-10-17T15:32:59;23.24;55.78
66962;HTU21D;53897;51.126;5.868;2022-10-17T15:35:26;23.25;55.84
66962;HTU21D;53897;51.126;5.868;2022-10-17T15:37:53;23.26;55.81
66962;HTU21D;53897;51.126;5.868;2022-10-17T15:40:26;23.26;55.81
66962;HTU21D;53897;51.126;5.868;2022-10-17T15:42:55;23.26;56.04
66962;HTU21D;53897;51.126;5.868;2022-10-17T15:45:22;23.26;56.16
66962;HTU21D;53897;51.126;5.868;2022-10-17T15:47:51;23.27;56.19
66962;HTU21D;53897;51.126;5.868;2022-10-17T15:50:18;23.28;56.23
66962;HTU21D;53897;51.126;5.868;2022-10-17T15:52:47;23.29;56.33
66962;HTU21D;53897;51.126;5.868;2022-10-17T15:55:16;23.30;56.30
66962;HTU21D;53897;51.126;5.868;2022-10-17T15:57:44;23.34;56.35
66962;HTU21D;53897;51.126;5.868;2022-10-17T16:00:18;23.34;56.58
66962;HTU21D;53897;51.126;5.868;2022-10-17T16:02:45;23.32;56.78
66962;HTU21D;53897;51.126;5.868;2022-10-17T16:05:23;23.36;57.11
66962;HTU21D;53897;51.126;5.868;2022-10-17T16:07:53;23.36;57.24
66962;HTU21D;53897;51.126;5.868;2022-10-17T16:10:20;23.36;57.30
66962;HTU21D;53897;51.126;5.868;2022-10-17T16:12:46;23.38;57.19
66962;HTU21D;53897;51.126;5.868;2022-10-17T16:17:42;23.38;56.89
66962;HTU21D;53897;51.126;5.868;2022-10-17T16:20:12;23.39;56.89
66962;HTU21D;53897;51.126;5.868;2022-10-17T16:22:39;23.40;56.83
66962;HTU21D;53897;51.126;5.868;2022-10-17T16:25:16;23.41;56.90
66962;HTU21D;53897;51.126;5.868;2022-10-17T16:27:45;23.41;56.91
66962;HTU21D;53897;51.126;5.868;2022-10-17T16:30:11;23.41;56.84
66962;HTU21D;53897;51.126;5.868;2022-10-17T16:32:37;23.43;56.86
66962;HTU21D;53897;51.126;5.868;2022-10-17T16:35:04;23.43;56.86
66962;HTU21D;53897;51.126;5.868;2022-10-17T16:37:30;23.43;56.90
66962;HTU21D;53897;51.126;5.868;2022-10-17T16:39:56;23.44;57.13
66962;HTU21D;53897;51.126;5.868;2022-10-17T16:42:22;23.44;57.10
66962;HTU21D;53897;51.126;5.868;2022-10-17T16:44:49;23.45;57.23
66962;HTU21D;53897;51.126;5.868;2022-10-17T16:47:15;23.45;57.22
66962;HTU21D;53897;51.126;5.868;2022-10-17T16:49:41;23.45;57.32
66962;HTU21D;53897;51.126;5.868;2022-10-17T16:52:07;23.46;57.42
66962;HTU21D;53897;51.126;5.868;2022-10-17T16:54:33;23.45;57.56
66962;HTU21D;53897;51.126;5.868;2022-10-17T16:57:03;23.44;57.64
66962;HTU21D;53897;51.126;5.868;2022-10-17T16:59:29;23.44;57.63
66962;HTU21D;53897;51.126;5.868;2022-10-17T17:01:54;23.45;57.60
66962;HTU21D;53897;51.126;5.868;2022-10-17T17:04:21;23.45;57.61
66962;HTU21D;53897;51.126;5.868;2022-10-17T17:06:47;23.44;57.32
66962;HTU21D;53897;51.126;5.868;2022-10-17T17:09:12;23.45;57.15
66962;HTU21D;53897;51.126;5.868;2022-10-17T17:11:38;23.45;57.16
66962;HTU21D;53897;51.126;5.868;2022-10-17T17:14:05;23.44;57.22
66962;HTU21D;53897;51.126;5.868;2022-10-17T17:16:33;23.44;57.29
66962;HTU21D;53897;51.126;5.868;2022-10-17T17:19:03;23.44;57.28
66962;HTU21D;53897;51.126;5.868;2022-10-17T17:21:31;23.44;57.06
66962;HTU21D;53897;51.126;5.868;2022-10-17T17:23:59;23.45;57.09
66962;HTU21D;53897;51.126;5.868;2022-10-17T17:26:27;23.44;57.10
66962;HTU21D;53897;51.126;5.868;2022-10-17T17:28:56;23.45;57.10
66962;HTU21D;53897;51.126;5.868;2022-10-17T17:31:27;23.46;57.03
66962;HTU21D;53897;51.126;5.868;2022-10-17T17:33:54;23.46;57.00